M I D A S
Marine Information and Data Acquisition System
Tripno 487 of the Zeeleeuw from 2003-04-08 07:50:36 to 2003-04-08 14:24:24
Back to CruiseResearch ActivitiesStationsMapUnderway DataData graphs

EquipmentUnitsComment
TimeDGPSUTC
LatitudeDGPSDM.mWGS84
LongitudeDGPSDM.mWGS84
HeadingGyrodeg 
SOGDGPSknotsSpeed over ground
COGDGPSdegCourse over ground
DepthEcho soundermeters200 kHz
Missing or incorrect values are displayed as -999
Navigation data collected by the RV Zeeleeuw from 2003-04-08 07:50:36 to 2003-04-08 14:24:24
Time Latitude Longitude Heading SOG COG Depth
2003-04-08 07:51:39 51°13.601 2°56.096 108.7 0.8 303 7.7
2003-04-08 07:52:40 51°13.619 2°56.012 111.6 4.4 290 -999
2003-04-08 07:53:40 51°13.65 2°55.884 118.8 5.3 296 -999
2003-04-08 07:54:39 51°13.677 2°55.778 108.3 3.8 289 10
2003-04-08 07:55:38 51°13.69 2°55.766 54.1 1.6 35 10.6
2003-04-08 07:56:39 51°13.718 2°55.773 358.3 0.8 341 10.5
2003-04-08 07:57:38 51°13.707 2°55.77 338.8 0.7 321 5.2
2003-04-08 07:58:38 51°13.767 2°55.703 328.6 6 322 9.4
2003-04-08 07:59:38 51°13.865 2°55.607 339.1 7.4 334 9.7
2003-04-08 08:00:39 51°13.98 2°55.521 339.8 7.8 335 9.7
2003-04-08 08:01:38 51°14.097 2°55.439 340.4 7.8 335 9.5
2003-04-08 08:02:39 51°14.212 2°55.333 328.8 7.9 325 9.7
2003-04-08 08:03:38 51°14.301 2°55.185 312.5 8 308 9.9
2003-04-08 08:04:38 51°14.377 2°55.013 306.2 8 301 10
2003-04-08 08:05:38 51°14.4 2°54.804 277.7 8.2 271 10.2
2003-04-08 08:06:38 51°14.392 2°54.597 266 6.9 261 10.2
2003-04-08 08:07:38 51°14.37 2°54.452 260.6 5.1 254 9.5
2003-04-08 08:08:38 51°14.348 2°54.337 261.2 4.2 253 9.2
2003-04-08 08:09:39 51°14.322 2°54.24 247.8 3.7 244 9.1
2003-04-08 08:10:38 51°14.294 2°54.159 245.7 3.4 240 9
2003-04-08 08:11:38 51°14.253 2°54.026 249.2 8.5 245 8.9
2003-04-08 08:12:39 51°14.166 2°53.739 249 12.9 245 8.8
2003-04-08 08:13:39 51°14.072 2°53.417 248.6 13.6 245 9
2003-04-08 08:14:39 51°13.974 2°53.09 247.4 13.7 244 9.5
2003-04-08 08:15:38 51°13.866 2°52.776 245.3 13.6 241 9.9
2003-04-08 08:16:39 51°13.756 2°52.456 245 13.6 241 9.9
2003-04-08 08:17:39 51°13.646 2°52.139 245 13.6 242 10.1
2003-04-08 08:18:38 51°13.539 2°51.829 245.3 13.6 241 10.1
2003-04-08 08:19:39 51°13.429 2°51.504 245.3 13.8 242 10.4
2003-04-08 08:20:39 51°13.316 2°51.177 244.9 14.5 241 10.4
2003-04-08 08:21:38 51°13.2 2°50.84 245.2 14.7 242 10.5
2003-04-08 08:22:39 51°13.081 2°50.49 244.8 14.8 241 10.6
2003-04-08 08:23:39 51°12.966 2°50.143 245.1 14.9 242 10.9
2003-04-08 08:24:38 51°12.852 2°49.802 245.5 14.9 242 11
2003-04-08 08:25:38 51°12.735 2°49.457 244.9 14.9 241 11.1
2003-04-08 08:26:38 51°12.619 2°49.108 245.3 14.9 242 11.3
2003-04-08 08:27:39 51°12.501 2°48.753 244.9 14.9 242 11.4
2003-04-08 08:28:38 51°12.387 2°48.411 245.4 14.9 242 11.5
2003-04-08 08:29:38 51°12.271 2°48.065 245.1 14.9 242 11.7
2003-04-08 08:30:38 51°12.156 2°47.718 245.2 14.8 242 11.7
2003-04-08 08:31:39 51°12.038 2°47.364 244.9 14.9 242 11.9
2003-04-08 08:32:39 51°11.921 2°47.015 245 14.9 242 11.7
2003-04-08 08:33:38 51°11.809 2°46.671 244.5 14.9 242 11.7
2003-04-08 08:34:39 51°11.695 2°46.313 246.6 14.9 243 11.7
2003-04-08 08:35:39 51°11.595 2°45.951 250.4 14.9 247 11.4
2003-04-08 08:36:38 51°11.498 2°45.596 248.7 14.7 246 11.4
2003-04-08 08:37:38 51°11.398 2°45.235 250 15 247 11.3
2003-04-08 08:38:39 51°11.297 2°44.868 249.4 15 247 11.2
2003-04-08 08:39:38 51°11.207 2°44.504 252.6 15 250 11.1
2003-04-08 08:40:39 51°11.119 2°44.127 252.3 15 249 11.1
2003-04-08 08:41:39 51°11.031 2°43.756 253.1 14.9 249 11
2003-04-08 08:42:38 51°10.944 2°43.393 252.8 15.1 249 11
2003-04-08 08:43:38 51°10.857 2°43.021 252.5 15.1 250 10.9
2003-04-08 08:44:39 51°10.77 2°42.643 255.4 15.2 251 10.8
2003-04-08 08:45:39 51°10.722 2°42.252 265.5 15.2 262 11.1
2003-04-08 08:46:39 51°10.683 2°41.858 262.7 15.1 260 11.3
2003-04-08 08:47:38 51°10.629 2°41.476 257 15.1 254 11.4
2003-04-08 08:48:38 51°10.552 2°41.097 255.1 15.1 252 11.5
2003-04-08 08:49:39 51°10.474 2°40.711 253.5 15.1 250 11.4
2003-04-08 08:50:39 51°10.384 2°40.337 250.9 15.1 249 11.8
2003-04-08 08:51:38 51°10.294 2°39.974 250.6 15 249 12.1
2003-04-08 08:52:39 51°10.202 2°39.599 250.5 15 249 12.6
2003-04-08 08:53:38 51°10.113 2°39.232 251.2 15.1 249 13.1
2003-04-08 08:54:38 51°10.022 2°38.859 250.7 15.2 249 13.5
2003-04-08 08:55:39 51°9.93 2°38.48 251.8 15 249 13.8
2003-04-08 08:56:39 51°9.834 2°38.121 248.2 15 247 14.1
2003-04-08 08:57:39 51°9.734 2°37.757 247.9 14.9 246 14.5
2003-04-08 08:58:38 51°9.635 2°37.396 248.3 14.9 246 14.9
2003-04-08 08:59:39 51°9.532 2°37.027 248.1 15.1 247 15.1
2003-04-08 09:00:39 51°9.432 2°36.659 248.7 15.1 247 15
2003-04-08 09:01:38 51°9.335 2°36.296 248.8 15.1 248 14.9
2003-04-08 09:02:38 51°9.235 2°35.926 248.4 15.3 247 15.4
2003-04-08 09:03:39 51°9.132 2°35.549 247.8 15.3 247 15.6
2003-04-08 09:04:38 51°9.034 2°35.182 249 15.3 247 15.7
2003-04-08 09:05:39 51°8.93 2°34.804 247.5 15.3 246 16
2003-04-08 09:06:38 51°8.829 2°34.436 248.1 15.4 246 15.8
2003-04-08 09:07:39 51°8.723 2°34.057 247.7 15.5 246 15.2
2003-04-08 09:08:38 51°8.621 2°33.692 248.3 15.4 246 14.6
2003-04-08 09:09:38 51°8.542 2°33.368 261.8 10 256 15.3
2003-04-08 09:10:38 51°8.544 2°33.173 294.9 6 280 15.5
2003-04-08 09:11:39 51°8.584 2°33.068 351.1 3.9 319 16.5
2003-04-08 09:12:39 51°8.629 2°33.048 43 2.2 6 17.8
2003-04-08 09:13:38 51°8.643 2°33.076 84.1 1 78 17.7
2003-04-08 09:14:39 51°8.637 2°33.057 101.8 1.3 254 17.8
2003-04-08 09:15:38 51°8.63 2°33.024 110.9 1.4 248 18
2003-04-08 09:16:38 51°8.62 2°32.991 119.4 1.4 243 18.1
2003-04-08 09:17:39 51°8.608 2°32.957 128.6 1.5 240 18
2003-04-08 09:18:39 51°8.595 2°32.924 136.3 1.5 236 18
2003-04-08 09:19:38 51°8.582 2°32.89 140.5 1.5 233 18
2003-04-08 09:20:39 51°8.566 2°32.857 140.4 1.5 230 18
2003-04-08 09:21:38 51°8.548 2°32.827 138 1.4 231 18
2003-04-08 09:22:39 51°8.533 2°32.795 135.9 1.6 230 17.9
2003-04-08 09:23:38 51°8.519 2°32.765 134.8 1.5 227 17.8
2003-04-08 09:24:39 51°8.498 2°32.742 132.5 1.5 209 17.8
2003-04-08 09:25:39 51°8.472 2°32.73 128.4 1.5 197 17.5
2003-04-08 09:26:39 51°8.449 2°32.725 120.6 1.4 178 17.4
2003-04-08 09:27:39 51°8.426 2°32.733 112.3 1.5 155 16.8
2003-04-08 09:28:39 51°8.413 2°32.77 89.8 1.8 109 16.5
2003-04-08 09:29:39 51°8.406 2°32.819 102.7 2.2 113 16.3
2003-04-08 09:30:39 51°8.397 2°32.869 76.6 1.8 85 16.2
2003-04-08 09:31:39 51°8.412 2°32.919 71.4 2.2 68 15.8
2003-04-08 09:32:39 51°8.422 2°32.981 79.4 2.5 82 15.6
2003-04-08 09:33:38 51°8.431 2°33.045 76 2.3 80 15.3
2003-04-08 09:34:39 51°8.444 2°33.097 69.7 2 68 15.1
2003-04-08 09:35:38 51°8.457 2°33.144 72.6 1.9 69 15
2003-04-08 09:36:38 51°8.47 2°33.194 76.5 2 76 15
2003-04-08 09:37:39 51°8.473 2°33.243 79.2 1.9 79 15.1
2003-04-08 09:38:39 51°8.479 2°33.292 78.1 1.9 79 14.9
2003-04-08 09:39:39 51°8.489 2°33.338 72.5 1.8 72 14.9
2003-04-08 09:40:38 51°8.506 2°33.379 62.4 1.9 51 14.9
2003-04-08 09:41:38 51°8.531 2°33.413 58.7 1.9 41 14.8
2003-04-08 09:42:39 51°8.55 2°33.452 72 1.8 62 15.3
2003-04-08 09:43:39 51°8.563 2°33.497 68.3 1.9 60 15.1
2003-04-08 09:44:39 51°8.58 2°33.537 62.6 1.9 50 14.6
2003-04-08 09:45:39 51°8.602 2°33.573 61.7 1.9 45 15
2003-04-08 09:46:39 51°8.624 2°33.611 67.7 1.9 56 15.1
2003-04-08 09:47:39 51°8.634 2°33.656 80.8 1.8 81 15.2
2003-04-08 09:48:39 51°8.635 2°33.703 83.4 1.8 88 15.5
2003-04-08 09:49:39 51°8.64 2°33.753 80.5 1.8 85 15.6
2003-04-08 09:50:39 51°8.643 2°33.8 78.9 1.8 81 15.3
2003-04-08 09:51:38 51°8.646 2°33.847 78.3 1.8 82 15.5
2003-04-08 09:52:39 51°8.657 2°33.887 65.5 1.7 56 15.7
2003-04-08 09:53:39 51°8.675 2°33.921 60.2 1.8 46 15.8
2003-04-08 09:54:39 51°8.698 2°33.95 53.7 1.8 32 15.5
2003-04-08 09:55:38 51°8.721 2°33.98 63.6 1.8 47 15.3
2003-04-08 09:56:38 51°8.734 2°34.02 74.7 1.7 71 15.4
2003-04-08 09:57:39 51°8.747 2°34.065 71.8 1.7 68 15.5
2003-04-08 09:58:39 51°8.76 2°34.104 65.3 1.7 54 15.4
2003-04-08 09:59:38 51°8.778 2°34.14 66.7 1.7 56 14.9
2003-04-08 10:00:39 51°8.795 2°34.179 68.8 1.6 61 15.6
2003-04-08 10:01:38 51°8.806 2°34.217 70.4 1.7 62 15.3
2003-04-08 10:02:39 51°8.818 2°34.253 63.8 1.7 52 15.5
2003-04-08 10:03:39 51°8.839 2°34.287 62.9 1.8 47 15.3
2003-04-08 10:04:39 51°8.856 2°34.324 69.1 1.7 59 15.5
2003-04-08 10:05:38 51°8.867 2°34.368 78.7 1.8 75 15.5
2003-04-08 10:06:38 51°8.865 2°34.41 88.9 1.4 102 15.1
2003-04-08 10:07:39 51°8.855 2°34.44 93.5 1.2 125 15.8
2003-04-08 10:08:39 51°8.843 2°34.461 101.2 1.2 143 15.3
2003-04-08 10:09:38 51°8.82 2°34.476 129 1.9 169 15.7
2003-04-08 10:10:38 51°8.779 2°34.471 153.8 2.7 188 15.8
2003-04-08 10:11:39 51°8.738 2°34.453 154.6 2.5 196 15.9
2003-04-08 10:12:39 51°8.702 2°34.432 150.9 2.1 202 16.1
2003-04-08 10:13:38 51°8.673 2°34.409 150.5 2.1 208 16.2
2003-04-08 10:14:39 51°8.642 2°34.38 152 2 211 16.2
2003-04-08 10:15:38 51°8.618 2°34.35 154.8 2 215 16.2
2003-04-08 10:16:38 51°8.59 2°34.317 157.9 2 218 16.2
2003-04-08 10:17:39 51°8.564 2°34.282 159.3 1.9 219 16.2
2003-04-08 10:18:39 51°8.542 2°34.248 160.9 2 221 16
2003-04-08 10:19:38 51°8.503 2°34.211 189 3.1 212 15.9
2003-04-08 10:20:39 51°8.46 2°34.139 239.5 4.1 236 15.7
2003-04-08 10:21:39 51°8.444 2°34.035 292 4 267 15.8
2003-04-08 10:22:39 51°8.458 2°33.948 336.7 3.2 295 16.1
2003-04-08 10:23:39 51°8.488 2°33.891 5.3 2.6 320 15.9
2003-04-08 10:24:38 51°8.525 2°33.861 19.6 2.4 340 16.1
2003-04-08 10:25:39 51°8.568 2°33.841 18.4 2.7 344 15.8
2003-04-08 10:26:38 51°8.602 2°33.828 29.7 1.9 348 15.3
2003-04-08 10:27:39 51°8.629 2°33.821 39.4 1.3 350 15.7
2003-04-08 10:28:39 51°8.647 2°33.815 40 1.2 346 15.8
2003-04-08 10:29:38 51°8.668 2°33.806 38.9 1.2 342 15.2
2003-04-08 10:30:38 51°8.687 2°33.798 44.2 1.1 348 14.9
2003-04-08 10:31:39 51°8.7 2°33.794 56.9 0.6 353 15.2
2003-04-08 10:32:39 51°8.707 2°33.793 63.7 0.3 353 15.5
2003-04-08 10:33:39 51°8.705 2°33.788 69.3 0.2 254 15
2003-04-08 10:34:39 51°8.7 2°33.778 74.9 0.7 228 15
2003-04-08 10:35:39 51°8.688 2°33.75 85.4 1.6 237 15.4
2003-04-08 10:36:39 51°8.672 2°33.707 109.8 1.9 241 15.5
2003-04-08 10:37:39 51°8.658 2°33.663 133.7 1.9 241 15.4
2003-04-08 10:38:39 51°8.641 2°33.62 150.9 1.9 237 15.1
2003-04-08 10:39:39 51°8.625 2°33.578 159.9 1.9 236 15
2003-04-08 10:40:39 51°8.606 2°33.536 158.1 1.9 233 15.2
2003-04-08 10:41:39 51°8.587 2°33.498 151.2 1.8 229 15.2
2003-04-08 10:42:39 51°8.568 2°33.461 145.3 1.8 229 15.3
2003-04-08 10:43:39 51°8.548 2°33.426 139.7 1.8 228 15.1
2003-04-08 10:44:39 51°8.529 2°33.393 134.3 1.7 227 14.8
2003-04-08 10:45:38 51°8.51 2°33.36 133.3 1.7 227 14.8
2003-04-08 10:46:39 51°8.489 2°33.328 133.3 1.7 227 14.8
2003-04-08 10:47:39 51°8.471 2°33.297 131.6 1.6 225 15.1
2003-04-08 10:48:39 51°8.451 2°33.267 127.3 1.6 216 15.3
2003-04-08 10:49:39 51°8.43 2°33.253 105.9 1.2 197 15.1
2003-04-08 10:50:39 51°8.413 2°33.248 87.2 0.9 185 15.6
2003-04-08 10:51:39 51°8.406 2°33.245 64.1 0.2 213 14.9
2003-04-08 10:52:39 51°8.408 2°33.241 43.3 0.5 332 15
2003-04-08 10:53:39 51°8.421 2°33.228 27.8 1.2 330 15.1
2003-04-08 10:54:39 51°8.443 2°33.203 16.3 1.7 325 15.1
2003-04-08 10:55:39 51°8.469 2°33.17 10.4 2.2 322 15.1
2003-04-08 10:56:39 51°8.498 2°33.134 8.7 2.3 323 15.4
2003-04-08 10:57:39 51°8.529 2°33.094 4.2 2.5 318 15.9
2003-04-08 10:58:39 51°8.559 2°33.045 2 2.6 317 16.8
2003-04-08 10:59:39 51°8.589 2°32.995 0.4 2.6 313 17.3
2003-04-08 11:00:39 51°8.621 2°32.944 358.1 2.8 312 18.4
2003-04-08 11:01:39 51°8.65 2°32.893 1.8 2.6 313 18.6
2003-04-08 11:02:39 51°8.676 2°32.843 4.3 2.4 310 18.4
2003-04-08 11:03:39 51°8.699 2°32.799 5.8 2.1 309 18.3
2003-04-08 11:04:39 51°8.719 2°32.755 11.4 1.9 308 18.2
2003-04-08 11:05:38 51°8.736 2°32.72 19.5 1.6 306 18.3
2003-04-08 11:06:38 51°8.749 2°32.688 29.6 1.3 307 18.4
2003-04-08 11:07:39 51°8.759 2°32.665 40.7 1 305 18.4
2003-04-08 11:08:39 51°8.766 2°32.651 54.8 0.5 308 18.3
2003-04-08 11:09:39 51°8.769 2°32.645 71.1 0.3 212 18.4
2003-04-08 11:10:39 51°8.757 2°32.645 89 0.8 172 18.4
2003-04-08 11:11:39 51°8.739 2°32.65 103.6 1.3 176 18.4
2003-04-08 11:12:38 51°8.715 2°32.655 110.6 1.5 173 18.3
2003-04-08 11:13:38 51°8.688 2°32.66 110.5 1.6 173 18.3
2003-04-08 11:14:38 51°8.667 2°32.665 101.2 1.2 172 18.4
2003-04-08 11:15:39 51°8.647 2°32.664 93.3 1 193 18.4
2003-04-08 11:16:39 51°8.632 2°32.65 88.8 1.2 213 18.5
2003-04-08 11:17:39 51°8.617 2°32.627 87 1.3 222 18.5
2003-04-08 11:18:38 51°8.598 2°32.603 87.9 1.6 220 18.6
2003-04-08 11:19:39 51°8.58 2°32.57 93.2 1.7 227 18.5
2003-04-08 11:20:39 51°8.562 2°32.54 99.9 1.7 225 18.5
2003-04-08 11:21:39 51°8.542 2°32.509 104.5 1.6 220 18.5
2003-04-08 11:22:38 51°8.521 2°32.483 106.5 1.6 219 18.4
2003-04-08 11:23:39 51°8.501 2°32.458 107.4 1.6 218 18.3
2003-04-08 11:24:39 51°8.479 2°32.431 108.6 1.6 222 18.2
2003-04-08 11:25:39 51°8.459 2°32.401 110.6 1.7 222 18.2
2003-04-08 11:26:39 51°8.44 2°32.368 110.8 1.7 224 18.7
2003-04-08 11:27:39 51°8.421 2°32.34 110.8 1.7 224 18.6
2003-04-08 11:28:39 51°8.398 2°32.306 112.4 1.7 225 18.7
2003-04-08 11:29:39 51°8.377 2°32.273 112.2 1.7 225 18.7
2003-04-08 11:30:39 51°8.358 2°32.24 111.6 1.8 225 18.9
2003-04-08 11:31:39 51°8.335 2°32.207 111.5 1.8 227 19
2003-04-08 11:32:39 51°8.314 2°32.175 111.3 1.7 226 19.2
2003-04-08 11:33:38 51°8.298 2°32.142 112.3 1.7 225 19.1
2003-04-08 11:34:38 51°8.278 2°32.112 111.7 1.6 224 19.2
2003-04-08 11:35:39 51°8.256 2°32.079 111.2 1.7 223 19.2
2003-04-08 11:36:39 51°8.237 2°32.049 111.1 1.8 222 19
2003-04-08 11:37:38 51°8.218 2°32.02 111 1.7 225 18.9
2003-04-08 11:38:39 51°8.198 2°31.988 110.4 1.7 225 19
2003-04-08 11:39:38 51°8.177 2°31.956 110.3 1.8 224 19.3
2003-04-08 11:40:39 51°8.156 2°31.923 109.7 1.7 225 19.3
2003-04-08 11:41:39 51°8.137 2°31.892 107.9 1.7 223 19.5
2003-04-08 11:42:39 51°8.121 2°31.858 105.9 1.7 226 19.5
2003-04-08 11:43:39 51°8.102 2°31.828 106 1.7 226 19.9
2003-04-08 11:44:39 51°8.08 2°31.8 106.3 1.5 220 19.9
2003-04-08 11:45:39 51°8.078 2°31.852 71.5 4.3 76 19.6
2003-04-08 11:46:39 51°8.144 2°32.082 66.4 11.7 63 19.1
2003-04-08 11:47:39 51°8.239 2°32.368 67.3 12.3 62 16.8
2003-04-08 11:48:39 51°8.337 2°32.658 67 12.4 62 17.9
2003-04-08 11:49:39 51°8.428 2°32.944 66.9 12.3 62 16.2
2003-04-08 11:50:39 51°8.523 2°33.234 67.1 12.3 63 15.5
2003-04-08 11:51:39 51°8.618 2°33.522 67.1 12.3 62 15.4
2003-04-08 11:52:38 51°8.712 2°33.807 67.2 12.3 62 15.7
2003-04-08 11:53:39 51°8.809 2°34.099 68.6 12.2 63 16.6
2003-04-08 11:54:39 51°8.894 2°34.389 69.1 12.1 65 16.1
2003-04-08 11:55:39 51°8.982 2°34.677 69.2 12.2 64 16.5
2003-04-08 11:56:39 51°9.068 2°34.966 69 12.1 64 16.7
2003-04-08 11:57:39 51°9.157 2°35.259 69.3 12.2 64 16
2003-04-08 11:58:39 51°9.247 2°35.552 69.5 12.2 64 16.6
2003-04-08 11:59:39 51°9.334 2°35.843 69.1 12.1 65 16.4
2003-04-08 12:00:39 51°9.421 2°36.134 69.2 12.3 64 15.9
2003-04-08 12:01:38 51°9.522 2°36.402 56.9 11.4 51 16.2
2003-04-08 12:02:38 51°9.601 2°36.486 45.4 2.8 23 16.5
2003-04-08 12:03:39 51°9.626 2°36.515 60.9 1.3 44 16.4
2003-04-08 12:04:38 51°9.631 2°36.531 62.4 0.7 51 16.7
2003-04-08 12:05:39 51°9.641 2°36.548 57.4 0.9 47 16.4
2003-04-08 12:06:39 51°9.662 2°36.571 50.3 2.3 32 16.6
2003-04-08 12:07:39 51°9.683 2°36.624 71.3 2.5 74 16.7
2003-04-08 12:08:39 51°9.692 2°36.694 75 2.5 79 16.8
2003-04-08 12:09:39 51°9.707 2°36.752 63.5 2.4 59 16.2
2003-04-08 12:10:39 51°9.727 2°36.797 59.1 2.1 50 16.6
2003-04-08 12:11:39 51°9.744 2°36.842 67.4 1.8 66 16.5
2003-04-08 12:12:39 51°9.753 2°36.884 71.6 1.7 79 16.6
2003-04-08 12:13:38 51°9.761 2°36.923 71.3 1.6 76 16.6
2003-04-08 12:14:39 51°9.771 2°36.966 69.3 1.5 80 17
2003-04-08 12:15:39 51°9.779 2°37.001 65.7 1.5 65 17
2003-04-08 12:16:39 51°9.786 2°37.04 67.9 1.6 70 17
2003-04-08 12:17:39 51°9.798 2°37.076 65.1 1.6 66 17
2003-04-08 12:18:39 51°9.809 2°37.113 65.4 1.6 68 17.1
2003-04-08 12:19:39 51°9.821 2°37.149 59.5 1.6 53 17.1
2003-04-08 12:20:39 51°9.839 2°37.181 55.5 1.6 47 17.2
2003-04-08 12:21:39 51°9.859 2°37.21 55.8 1.7 47 17.3
2003-04-08 12:22:39 51°9.876 2°37.243 61.6 1.7 55 17.4
2003-04-08 12:23:38 51°9.89 2°37.283 63.8 1.6 65 17.3
2003-04-08 12:24:39 51°9.904 2°37.319 56.8 1.7 52 17.4
2003-04-08 12:25:39 51°9.923 2°37.353 58.3 1.7 52 17.4
2003-04-08 12:26:38 51°9.936 2°37.389 66.2 1.7 66 17.5
2003-04-08 12:27:39 51°9.946 2°37.432 63.8 1.7 68 17.4
2003-04-08 12:28:38 51°9.961 2°37.47 56.1 1.7 53 17.5
2003-04-08 12:29:39 51°9.985 2°37.504 54.2 1.8 45 17.6
2003-04-08 12:30:39 51°10.003 2°37.541 58.1 1.8 52 17.7
2003-04-08 12:31:39 51°10.02 2°37.578 56.6 1.8 55 17.8
2003-04-08 12:32:39 51°10.039 2°37.612 54.4 1.8 48 17.7
2003-04-08 12:33:39 51°10.061 2°37.65 55.4 2 48 17.8
2003-04-08 12:34:39 51°10.08 2°37.686 57.7 1.9 55 17.7
2003-04-08 12:35:38 51°10.097 2°37.725 61.2 1.9 56 17.7
2003-04-08 12:36:38 51°10.113 2°37.769 66.8 1.9 68 17.7
2003-04-08 12:37:39 51°10.122 2°37.816 68 1.9 70 17.1
2003-04-08 12:38:39 51°10.132 2°37.861 64.7 1.8 64 17.4
2003-04-08 12:39:39 51°10.146 2°37.906 67.2 1.8 69 17
2003-04-08 12:40:39 51°10.148 2°37.946 79.9 1.5 99 17.2
2003-04-08 12:41:38 51°10.143 2°37.978 80.4 1.2 106 17.2
2003-04-08 12:42:39 51°10.133 2°38.01 89.1 1.3 112 16.8
2003-04-08 12:43:39 51°10.119 2°38.056 91.3 3 103 16.6
2003-04-08 12:44:39 51°10.118 2°38.148 80.2 2.9 89 16.9
2003-04-08 12:45:38 51°10.122 2°38.197 71.6 1.5 86 16.7
2003-04-08 12:46:39 51°10.117 2°38.212 77.3 0.6 174 17
2003-04-08 12:47:39 51°10.109 2°38.209 84.4 0.8 191 17
2003-04-08 12:48:39 51°10.095 2°38.199 87.8 0.9 195 17.3
2003-04-08 12:49:39 51°10.082 2°38.189 87.5 0.9 206 17.3
2003-04-08 12:50:39 51°10.069 2°38.181 89 1 207 17.2
2003-04-08 12:51:39 51°10.056 2°38.168 90.9 1 210 17.2
2003-04-08 12:52:39 51°10.042 2°38.156 95.3 1 209 17.2
2003-04-08 12:53:39 51°10.028 2°38.143 98.7 1 209 17.2
2003-04-08 12:54:39 51°10.014 2°38.13 100.3 1 208 17.2
2003-04-08 12:55:38 51°10 2°38.121 102.1 0.9 210 17.2
2003-04-08 12:56:38 51°9.985 2°38.106 107 1 210 17.2
2003-04-08 12:57:39 51°9.967 2°38.092 109.5 1 193 17.1
2003-04-08 12:58:39 51°9.951 2°38.088 108.1 1 187 17.1
2003-04-08 12:59:39 51°9.932 2°38.083 104.4 0.9 179 17
2003-04-08 13:00:39 51°9.92 2°38.088 102.7 0.9 176 16.7
2003-04-08 13:01:39 51°9.905 2°38.09 99.3 0.8 171 16.7
2003-04-08 13:02:39 51°9.893 2°38.099 96.7 0.9 173 16.5
2003-04-08 13:03:39 51°9.879 2°38.096 95.4 0.8 181 16.5
2003-04-08 13:04:39 51°9.864 2°38.091 98 0.8 190 16.4
2003-04-08 13:05:39 51°9.852 2°38.088 99.4 0.9 196 16.1
2003-04-08 13:06:39 51°9.842 2°38.085 99 0.8 198 16.1
2003-04-08 13:07:39 51°9.83 2°38.081 99.8 0.9 199 16
2003-04-08 13:08:39 51°9.814 2°38.069 101.2 1.1 203 15.8
2003-04-08 13:09:39 51°9.798 2°38.058 104.1 0.9 201 15.8
2003-04-08 13:10:39 51°9.786 2°38.052 105.2 0.9 200 15.7
2003-04-08 13:11:39 51°9.772 2°38.046 105.2 0.8 198 15.6
2003-04-08 13:12:39 51°9.758 2°38.038 105.7 0.9 198 15.5
2003-04-08 13:13:38 51°9.748 2°38.035 106.5 0.8 195 15.3
2003-04-08 13:14:39 51°9.731 2°38.025 105.4 0.9 194 15.3
2003-04-08 13:15:38 51°9.721 2°38.024 106.1 0.8 194 15
2003-04-08 13:16:39 51°9.706 2°38.015 107.8 0.8 195 14.8
2003-04-08 13:17:39 51°9.69 2°38.004 107.5 0.8 196 14.8
2003-04-08 13:18:39 51°9.675 2°37.998 109.7 0.8 195 14.6
2003-04-08 13:19:38 51°9.663 2°37.993 108.3 0.8 196 14.5
2003-04-08 13:20:39 51°9.65 2°37.988 109.4 0.8 196 14.4
2003-04-08 13:21:39 51°9.637 2°37.982 111.7 0.8 196 14.2
2003-04-08 13:22:38 51°9.625 2°37.977 114.2 0.8 192 14.1
2003-04-08 13:23:39 51°9.612 2°37.979 114.8 0.9 188 13.9
2003-04-08 13:24:39 51°9.597 2°37.974 114.3 0.9 186 13.8
2003-04-08 13:25:38 51°9.584 2°37.971 112.4 0.8 180 13.6
2003-04-08 13:26:39 51°9.571 2°37.971 111 0.8 182 13.5
2003-04-08 13:27:39 51°9.557 2°37.975 107 0.9 145 13.3
2003-04-08 13:28:39 51°9.551 2°38.018 76.6 2.2 86 13.2
2003-04-08 13:29:39 51°9.617 2°38.128 43.8 8.9 39 13.5
2003-04-08 13:30:39 51°9.75 2°38.31 44.2 11.8 40 14.4
2003-04-08 13:31:39 51°9.891 2°38.57 62.8 13.3 58 15
2003-04-08 13:32:39 51°9.978 2°38.893 75.4 13.3 72 14.7
2003-04-08 13:33:40 51°10.046 2°39.235 75.5 13.4 72 14.4
2003-04-08 13:34:39 51°10.113 2°39.569 75.1 13.5 72 13.8
2003-04-08 13:35:39 51°10.197 2°39.902 69.5 13.6 66 13.7
2003-04-08 13:36:40 51°10.29 2°40.235 69.4 13.7 66 13.6
2003-04-08 13:37:39 51°10.382 2°40.556 69.6 13.6 66 13.4
2003-04-08 13:38:39 51°10.476 2°40.883 69.3 13.7 65 13.6
2003-04-08 13:39:39 51°10.57 2°41.214 69.5 13.8 66 13.5
2003-04-08 13:40:40 51°10.665 2°41.551 69.2 13.7 66 13.6
2003-04-08 13:41:39 51°10.756 2°41.878 69 13.7 66 13.7
2003-04-08 13:42:39 51°10.85 2°42.21 69.2 13.7 66 13.7
2003-04-08 13:43:39 51°10.943 2°42.541 69.6 13.9 66 13.8
2003-04-08 13:44:40 51°11.036 2°42.88 69.4 13.8 66 13.9
2003-04-08 13:45:39 51°11.124 2°43.213 71.8 13.9 69 13.9
2003-04-08 13:46:39 51°11.211 2°43.555 71.7 13.9 68 14
2003-04-08 13:47:40 51°11.299 2°43.901 71.6 13.8 68 14.1
2003-04-08 13:48:39 51°11.383 2°44.234 70.9 13.9 67 14.2
2003-04-08 13:49:39 51°11.47 2°44.573 71.4 13.9 68 14.2
2003-04-08 13:50:39 51°11.559 2°44.914 71 14 67 14.2
2003-04-08 13:51:40 51°11.643 2°45.262 73.7 14 70 14.3
2003-04-08 13:52:39 51°11.722 2°45.609 73.7 13.9 70 14.3
2003-04-08 13:53:39 51°11.804 2°45.956 73.3 13.9 69 14.4
2003-04-08 13:54:39 51°11.884 2°46.3 73.3 13.9 69 14.4
2003-04-08 13:55:40 51°11.966 2°46.65 73.7 14 70 14.3
2003-04-08 13:56:39 51°12.047 2°46.989 73.4 14 69 14.2
2003-04-08 13:57:39 51°12.134 2°47.339 71.1 14 67 14.2
2003-04-08 13:58:40 51°12.229 2°47.683 70.6 13.9 66 14
2003-04-08 13:59:39 51°12.324 2°48.006 67.7 13.9 63 13.9
2003-04-08 14:00:39 51°12.426 2°48.334 68 13.9 63 13.8
2003-04-08 14:01:39 51°12.529 2°48.668 68.4 14 64 13.6
2003-04-08 14:02:40 51°12.637 2°49.011 68.4 14 64 13.3
2003-04-08 14:03:40 51°12.737 2°49.347 70.3 14 66 13.2
2003-04-08 14:04:39 51°12.83 2°49.68 70.4 14 66 13
2003-04-08 14:05:38 51°12.924 2°50.013 70.4 14 66 12.9
2003-04-08 14:06:40 51°13.02 2°50.362 70.4 14 66 12.7
2003-04-08 14:07:39 51°13.122 2°50.699 67.8 14 64 12.6
2003-04-08 14:08:39 51°13.224 2°51.03 68.2 14 64 12.3
2003-04-08 14:09:39 51°13.326 2°51.363 68.3 14.1 64 12
2003-04-08 14:10:39 51°13.428 2°51.696 68.3 14.1 64 12.1
2003-04-08 14:11:39 51°13.53 2°52.032 68.1 14.1 64 12
2003-04-08 14:12:39 51°13.631 2°52.366 68.3 14 64 11.9
2003-04-08 14:13:40 51°13.758 2°52.622 48.3 9.5 46 11.9
2003-04-08 14:14:38 51°13.829 2°52.74 54.5 5 53 12.1
2003-04-08 14:15:40 51°13.868 2°52.83 49.6 3.5 51 12
2003-04-08 14:16:40 51°13.902 2°52.91 56.3 4.1 57 12
2003-04-08 14:17:38 51°13.952 2°53.033 59.8 9.3 56 11.8
2003-04-08 14:18:39 51°14.08 2°53.289 55.1 13.1 51 11.5
2003-04-08 14:19:39 51°14.208 2°53.572 57.3 13.2 53 11.3
2003-04-08 14:20:40 51°14.328 2°53.869 63.8 13.2 60 11.2
2003-04-08 14:21:40 51°14.418 2°54.192 77.1 13.1 73 11.1
2003-04-08 14:22:39 51°14.445 2°54.53 92.5 13.2 88 12
2003-04-08 14:23:38 51°14.418 2°54.867 112.6 13.2 106 12.1